Currently 63°F in Pinon Hills, California, USA
63°F
68°F / 63°F
4 mph SW
0.00"
Monday, September 24, 2018 7:06 AM PDT

Pinon Hills, California Climate Summary
Typical September Day

Normal High:    84.6°F (29.2°C)
Normal Low:    60.5°F (15.8°C)
Average:    72.3°F (22.4°C)

Hour    Temperature    Wind Speed    Humidity
12:00 AM    66°F (19°C)    2 mph    40%
1:00 AM    65°F (18°C)    2 mph    41%
2:00 AM    65°F (18°C)    2 mph    41%
3:00 AM    64°F (18°C)    2 mph    41%
4:00 AM    63°F (17°C)    2 mph    42%
5:00 AM    63°F (17°C)    2 mph    42%
6:00 AM    63°F (17°C)    2 mph    43%
7:00 AM    63°F (17°C)    1 mph    42%
8:00 AM    69°F (21°C)    1 mph    37%
9:00 AM    74°F (23°C)    2 mph    32%
10:00 AM    76°F (24°C)    2 mph    29%
11:00 AM    78°F (26°C)    3 mph    26%
12:00 PM    80°F (27°C)    3 mph    23%
1:00 PM    82°F (28°C)    3 mph    21%
2:00 PM    83°F (28°C)    4 mph    20%
3:00 PM    83°F (28°C)    4 mph    20%
4:00 PM    83°F (28°C)    4 mph    20%
5:00 PM    82°F (28°C)    4 mph    21%
6:00 PM    80°F (27°C)    4 mph    24%
7:00 PM    75°F (24°C)    3 mph    29%
8:00 PM    72°F (22°C)    3 mph    32%
9:00 PM    70°F (21°C)    2 mph    35%
10:00 PM    68°F (20°C)    2 mph    37%
11:00 PM    67°F (19°C)    2 mph    39%
 

The Pinon Hills, California weather pages are a service of WeatherCurrents.
Copyright ©Mon Sep 24 07:06:53 PDT 2018  WeatherCurrents. All rights reserved. - Submit questions and comments - Privacy Policy